This is the latest recevied weather packets stored in our database for station/object KE0TNI-13. If no packets are shown the sender has not sent any weather packets the latest 10 day(s).
| Time | Temp. | Humidity | Pressure | Rain* | Wind** | Luminosity | Snow |
|---|---|---|---|---|---|---|---|
| 1777689706 | -0.56° C | 73% | 1024.5 hPa | 0 mm | - | 0 W/m² | - |
| 1777689404 | -0.56° C | 74% | 1024.2 hPa | 0 mm | - | 0 W/m² | - |
| 1777689101 | 0° C | 71% | 1024.5 hPa | 0 mm | - | 0 W/m² | - |
| 1777688798 | 0° C | 70% | 1024.4 hPa | 0 mm | - | 0 W/m² | - |
| 1777671826 | 6.67° C | 48% | 1022.7 hPa | 0 mm | - | 420 W/m² | - |
| 1777671522 | 6.11° C | 54% | 1022.8 hPa | 0.51 mm | - | 902 W/m² | - |
| 1777671219 | 5.56° C | 54% | 1023.1 hPa | 0.51 mm | - | 255 W/m² | - |
| 1777670611 | 5.56° C | 57% | 1022.8 hPa | 0.51 mm | - | 196 W/m² | - |
| 1777670006 | 6.67° C | 51% | 1023 hPa | 0.51 mm | - | 163 W/m² | - |
| 1777669706 | 7.22° C | 49% | 1023 hPa | 1.27 mm | - | 491 W/m² | - |
| 1777669400 | 6.11° C | 58% | 1023.2 hPa | 0.51 mm | - | 1047 W/m² | - |
| 1777669096 | 5.56° C | 57% | 1023 hPa | 0 mm | - | 181 W/m² | - |
| 1777667882 | 5° C | 57% | 1023 hPa | 1.27 mm | - | 1121 W/m² | - |
| 1777667277 | 6.11° C | 50% | 1023 hPa | 1.27 mm | - | 1179 W/m² | - |
| 1777666974 | 6.67° C | 46% | 1022.8 hPa | 1.78 mm | - | 1034 W/m² | - |
| 1777666671 | 5.56° C | 59% | 1023.1 hPa | 0.51 mm | - | 271 W/m² | - |
| 1777666368 | 5° C | 72% | 1023 hPa | 0 mm | - | 213 W/m² | - |
| 1777666064 | 5° C | 50% | 1023.2 hPa | 0 mm | - | 121 W/m² | - |
| 1777665761 | 5.56° C | 57% | 1023 hPa | 0 mm | - | 172 W/m² | - |
| 1777664851 | 5.56° C | 63% | 1023.1 hPa | 0 mm | - | 185 W/m² | - |
| 1777664547 | 6.11° C | 54% | 1023.1 hPa | 0 mm | - | 171 W/m² | - |
| 1777664243 | 5.56° C | 54% | 1023 hPa | 0 mm | - | 150 W/m² | - |
| 1777663942 | 5.56° C | 62% | 1022.8 hPa | 0 mm | - | 123 W/m² | - |
| 1777663639 | 4.44° C | 57% | 1023.2 hPa | 0 mm | - | 84 W/m² | - |
| 1777663336 | 4.44° C | 62% | 1023.2 hPa | 0 mm | - | 139 W/m² | - |
* Rain latest hour (hover to see other rain measurements)
** Current wind speed in m/s (hover to see current wind gust speed)